Time;durP1;ratioP1;P1;durP2;ratioP2;P2;SDS_P1;SDS_P2;PMS_P1;PMS_P2;Temp;Humidity;BMP_temperature;BMP_pressure;BME280_temperature;BME280_humidity;BME280_pressure;Samples;Min_cycle;Max_cycle;Signal;HPM_P1;HPM_P2
2022/03/08 00:00:44;;;;;;;27.40;18.40;;;-0.70;98.90;;;;;;4973393;28;20184;-67
2022/03/08 00:03:10;;;;;;;27.00;19.33;;;-0.80;99.10;;;;;;4973610;28;20440;-67
2022/03/08 00:05:35;;;;;;;25.90;18.93;;;-0.80;98.40;;;;;;4972420;28;20559;-67
2022/03/08 00:08:03;;;;;;;25.27;18.50;;;-0.90;98.90;;;;;;4973240;28;20184;-67
2022/03/08 00:10:28;;;;;;;35.57;18.07;;;-0.90;98.90;;;;;;4973386;28;20690;-68
2022/03/08 00:12:54;;;;;;;22.10;16.70;;;-0.80;98.50;;;;;;4973351;28;20626;-67
2022/03/08 00:15:24;;;;;;;19.10;15.80;;;-0.80;98.20;;;;;;4972644;28;20204;-68
2022/03/08 00:17:50;;;;;;;26.40;17.83;;;-0.80;98.30;;;;;;4973162;28;20189;-67
2022/03/08 00:20:17;;;;;;;23.97;17.33;;;-0.80;98.10;;;;;;4973512;28;20439;-67
2022/03/08 00:22:43;;;;;;;22.43;17.10;;;-0.80;98.20;;;;;;4973061;28;20439;-67
2022/03/08 00:25:10;;;;;;;21.37;16.70;;;-0.80;98.30;;;;;;4972375;28;20458;-68
2022/03/08 00:27:35;;;;;;;21.50;15.97;;;-0.80;98.00;;;;;;4972940;28;20440;-67
2022/03/08 00:30:01;;;;;;;21.97;16.60;;;-0.80;97.60;;;;;;4973070;28;20494;-68
2022/03/08 00:32:27;;;;;;;21.93;15.80;;;-0.80;97.90;;;;;;4973144;28;20254;-67
2022/03/08 00:34:53;;;;;;;24.83;18.03;;;-0.90;97.60;;;;;;4972941;28;20211;-67
2022/03/08 00:37:19;;;;;;;24.07;17.10;;;-0.90;97.80;;;;;;4972592;28;20287;-68
2022/03/08 00:39:45;;;;;;;19.23;15.10;;;-1.00;97.90;;;;;;4972968;28;20431;-67
2022/03/08 00:42:12;;;;;;;21.60;14.80;;;-1.00;98.30;;;;;;4972989;28;20442;-67
2022/03/08 00:44:44;;;;;;;22.77;15.47;;;-1.00;98.90;;;;;;4972724;28;20219;-67
2022/03/08 00:47:10;;;;;;;19.83;15.07;;;-1.00;99.00;;;;;;4971873;28;20435;-67
2022/03/08 00:49:37;;;;;;;22.10;16.00;;;-1.00;99.90;;;;;;4973064;28;20478;-67
2022/03/08 00:52:04;;;;;;;23.30;16.97;;;-1.00;99.90;;;;;;4972729;28;20526;-67
2022/03/08 00:54:29;;;;;;;20.83;15.70;;;-1.00;99.90;;;;;;4972377;28;20834;-67
2022/03/08 00:56:55;;;;;;;22.27;16.30;;;-1.10;99.90;;;;;;4972331;28;20543;-67
2022/03/08 00:59:21;;;;;;;21.57;16.33;;;-1.20;99.90;;;;;;4972716;28;20188;-67
2022/03/08 01:01:46;;;;;;;19.77;13.87;;;-1.30;99.90;;;;;;4973003;28;20202;-68
2022/03/08 01:04:12;;;;;;;32.13;14.87;;;-1.30;99.90;;;;;;4972787;28;20176;-67
2022/03/08 01:06:40;;;;;;;20.03;15.70;;;-1.30;99.90;;;;;;4971971;28;20208;-67
2022/03/08 01:09:05;;;;;;;22.30;15.90;;;-1.30;99.90;;;;;;4972387;28;20357;-67
2022/03/08 01:11:32;;;;;;;22.77;15.27;;;-1.20;99.90;;;;;;4972873;28;20523;-67
2022/03/08 01:13:58;;;;;;;24.47;16.40;;;-1.20;99.90;;;;;;4972721;28;20250;-67
2022/03/08 01:16:24;;;;;;;21.10;15.57;;;-1.20;99.90;;;;;;4971960;28;20819;-67
2022/03/08 01:18:50;;;;;;;24.07;15.90;;;-1.20;99.90;;;;;;4973040;28;20442;-67
2022/03/08 01:21:16;;;;;;;23.47;16.90;;;-1.20;99.90;;;;;;4973021;28;20185;-67
2022/03/08 01:23:43;;;;;;;21.17;15.47;;;-1.20;99.90;;;;;;4972641;28;20495;-67
2022/03/08 01:26:09;;;;;;;22.63;15.13;;;-1.20;99.90;;;;;;4971940;28;20591;-67
2022/03/08 01:28:35;;;;;;;20.37;16.00;;;-1.20;99.90;;;;;;4972696;28;20440;-67
2022/03/08 01:31:01;;;;;;;21.07;16.00;;;-1.20;99.90;;;;;;4972853;28;20479;-67
2022/03/08 01:33:27;;;;;;;23.63;15.87;;;-1.20;99.90;;;;;;4972687;28;20463;-67
2022/03/08 01:35:52;;;;;;;20.80;15.43;;;-1.20;99.90;;;;;;4972031;28;20475;-68
2022/03/08 01:38:18;;;;;;;23.70;16.33;;;-1.20;99.90;;;;;;4972417;28;20470;-67
2022/03/08 01:40:44;;;;;;;19.20;14.83;;;-1.20;99.90;;;;;;4972317;28;20255;-67
2022/03/08 01:43:09;;;;;;;24.70;15.80;;;-1.10;99.90;;;;;;4972448;28;20208;-67
2022/03/08 01:45:35;;;;;;;20.13;15.90;;;-1.20;99.90;;;;;;4971812;28;20514;-67
2022/03/08 01:48:01;;;;;;;20.60;14.63;;;-1.20;99.90;;;;;;4972880;28;20188;-68
2022/03/08 01:50:27;;;;;;;18.07;14.87;;;-1.30;99.90;;;;;;4973640;28;20239;-67
2022/03/08 01:52:53;;;;;;;20.53;15.10;;;-1.20;99.90;;;;;;4975558;28;20455;-68
2022/03/08 01:55:19;;;;;;;20.40;16.13;;;-1.30;99.90;;;;;;4975366;28;20455;-67
2022/03/08 01:57:47;;;;;;;22.00;16.20;;;-1.40;99.90;;;;;;4975854;28;20230;-68
2022/03/08 02:00:15;;;;;;;21.73;15.50;;;-1.50;99.90;;;;;;4975929;28;20443;-68
2022/03/08 02:02:42;;;;;;;23.57;17.50;;;-1.50;99.90;;;;;;4975582;28;20921;-67
2022/03/08 02:05:08;;;;;;;21.33;17.10;;;-1.60;99.90;;;;;;4975190;28;20816;-67
2022/03/08 02:07:34;;;;;;;18.80;14.53;;;-1.60;99.90;;;;;;4975049;28;20459;-67
2022/03/08 02:10:00;;;;;;;24.40;14.70;;;-1.60;99.90;;;;;;4975258;28;20850;-67
2022/03/08 02:12:26;;;;;;;20.87;15.83;;;-1.50;99.90;;;;;;4974797;28;20930;-67
2022/03/08 02:14:51;;;;;;;23.47;16.30;;;-1.50;99.90;;;;;;4975559;28;20231;-67
2022/03/08 02:17:17;;;;;;;27.20;16.90;;;-1.60;99.90;;;;;;4974572;28;20259;-67
2022/03/08 02:19:42;;;;;;;21.33;15.13;;;-1.60;99.90;;;;;;4975741;28;20184;-67
2022/03/08 02:22:08;;;;;;;22.50;15.80;;;-1.60;99.90;;;;;;4975585;28;20277;-68
2022/03/08 02:24:33;;;;;;;18.37;14.80;;;-1.60;99.90;;;;;;4975699;28;20235;-67
2022/03/08 02:27:00;;;;;;;20.47;15.20;;;-1.60;99.90;;;;;;4972186;28;20212;-68
2022/03/08 02:29:27;;;;;;;25.40;17.43;;;-1.60;99.90;;;;;;4975540;28;20172;-67
2022/03/08 02:31:53;;;;;;;26.20;15.37;;;-1.60;99.90;;;;;;4975263;28;20435;-67
2022/03/08 02:34:19;;;;;;;22.00;14.97;;;-1.60;99.90;;;;;;4975036;28;20470;-67
2022/03/08 02:37:04;;;;;;;20.97;15.03;;;-1.60;99.90;;;;;;4974551;28;20464;-67
2022/03/08 02:39:30;;;;;;;20.60;15.10;;;-1.70;99.90;;;;;;4975181;28;20180;-67
2022/03/08 02:41:56;;;;;;;24.07;17.10;;;-1.70;99.90;;;;;;4975304;28;21008;-67
2022/03/08 02:44:22;;;;;;;23.93;17.07;;;-1.70;99.90;;;;;;4974883;28;20234;-67
2022/03/08 02:46:47;;;;;;;21.47;17.00;;;-1.80;99.90;;;;;;4974452;28;20279;-67
2022/03/08 02:49:13;;;;;;;22.43;16.80;;;-1.90;99.90;;;;;;4974814;28;20211;-67
2022/03/08 02:51:38;;;;;;;23.80;16.17;;;-1.90;99.90;;;;;;4974977;28;20177;-67
2022/03/08 02:54:04;;;;;;;23.60;18.13;;;-1.90;99.90;;;;;;4975204;28;20785;-67
2022/03/08 02:56:30;;;;;;;23.40;16.97;;;-1.90;99.90;;;;;;4973792;28;20196;-67
2022/03/08 02:58:55;;;;;;;25.03;18.63;;;-2.00;99.90;;;;;;4975160;28;20183;-67
2022/03/08 03:01:21;;;;;;;33.07;17.43;;;-2.00;99.90;;;;;;4975032;28;20505;-67
2022/03/08 03:03:47;;;;;;;23.60;16.40;;;-2.00;99.90;;;;;;4974193;28;20178;-67
2022/03/08 03:06:12;;;;;;;22.50;16.33;;;-2.10;99.90;;;;;;4973483;28;20662;-67
2022/03/08 03:08:38;;;;;;;26.00;17.50;;;-2.10;99.90;;;;;;4974669;28;20205;-67
2022/03/08 03:11:03;;;;;;;21.73;16.00;;;-2.10;99.90;;;;;;4974473;28;20184;-67
2022/03/08 03:13:29;;;;;;;23.27;16.50;;;-2.10;99.90;;;;;;4974319;28;20208;-68
2022/03/08 03:15:54;;;;;;;25.10;16.53;;;-2.00;99.90;;;;;;4973867;28;20196;-67
2022/03/08 03:18:20;;;;;;;23.73;17.20;;;-2.00;99.90;;;;;;4974395;28;20565;-67
2022/03/08 03:20:45;;;;;;;27.37;18.43;;;-2.10;99.90;;;;;;4974443;28;20705;-67
2022/03/08 03:23:11;;;;;;;25.27;16.83;;;-2.10;99.90;;;;;;4974433;28;20184;-67
2022/03/08 03:25:36;;;;;;;26.40;16.63;;;-2.10;99.90;;;;;;4973555;28;20227;-67
2022/03/08 03:28:02;;;;;;;19.20;14.23;;;-2.10;99.90;;;;;;4974489;28;20207;-67
2022/03/08 03:30:28;;;;;;;21.47;15.90;;;-2.10;99.90;;;;;;4974223;28;20761;-67
2022/03/08 03:32:53;;;;;;;17.40;13.93;;;-2.10;99.90;;;;;;4974256;28;20298;-67
2022/03/08 03:35:19;;;;;;;22.20;15.63;;;-2.10;99.90;;;;;;4973035;28;20204;-67
2022/03/08 03:37:45;;;;;;;22.47;15.90;;;-2.10;99.90;;;;;;4973818;28;20187;-67
2022/03/08 03:40:11;;;;;;;26.40;17.07;;;-2.10;99.90;;;;;;4974001;28;20199;-67
2022/03/08 03:42:37;;;;;;;23.00;15.43;;;-2.10;99.90;;;;;;4973651;28;20937;-67
2022/03/08 03:45:04;;;;;;;22.40;16.70;;;-2.10;99.90;;;;;;4972967;28;20854;-67
2022/03/08 03:47:29;;;;;;;21.07;14.37;;;-2.20;99.90;;;;;;4973728;28;20231;-67
2022/03/08 03:49:55;;;;;;;24.47;16.57;;;-2.30;99.90;;;;;;4973768;28;20439;-67
2022/03/08 03:52:21;;;;;;;29.07;18.07;;;-2.30;99.90;;;;;;4973191;28;20716;-67
2022/03/08 03:54:46;;;;;;;23.53;17.57;;;-2.30;99.90;;;;;;4973608;28;20178;-67
2022/03/08 03:57:12;;;;;;;21.03;16.07;;;-2.40;99.90;;;;;;4972385;28;20949;-67
2022/03/08 03:59:39;;;;;;;23.80;15.70;;;-2.40;99.90;;;;;;4973381;28;20224;-67
2022/03/08 04:02:05;;;;;;;27.77;17.57;;;-2.40;99.90;;;;;;4973309;28;20817;-67
2022/03/08 04:04:30;;;;;;;23.63;16.20;;;-2.50;99.90;;;;;;4973262;28;20482;-67
2022/03/08 04:06:56;;;;;;;25.30;15.83;;;-2.50;99.90;;;;;;4972307;28;20219;-67
2022/03/08 04:09:21;;;;;;;24.10;17.17;;;-2.50;99.90;;;;;;4973505;28;20267;-67
2022/03/08 04:11:47;;;;;;;23.40;15.03;;;-2.50;99.90;;;;;;4973309;28;20263;-67
2022/03/08 04:14:12;;;;;;;25.50;17.10;;;-2.50;99.90;;;;;;4972427;28;20240;-67
2022/03/08 04:16:38;;;;;;;22.40;17.03;;;-2.50;99.90;;;;;;4972318;28;20243;-67
2022/03/08 04:19:03;;;;;;;19.47;13.90;;;-2.60;99.90;;;;;;4973430;28;20185;-67
2022/03/08 04:21:29;;;;;;;26.00;15.30;;;-2.70;99.90;;;;;;4972651;28;20251;-67
2022/03/08 04:23:54;;;;;;;25.43;16.23;;;-2.70;99.90;;;;;;4973060;28;20188;-67
2022/03/08 04:26:20;;;;;;;23.10;16.13;;;-2.70;99.90;;;;;;4972507;28;20206;-67
2022/03/08 04:28:45;;;;;;;23.13;15.60;;;-2.70;99.90;;;;;;4972906;28;20558;-67
2022/03/08 04:31:11;;;;;;;20.13;14.80;;;-2.70;99.90;;;;;;4972850;28;20208;-67
2022/03/08 04:33:37;;;;;;;24.60;15.70;;;-2.70;99.90;;;;;;4972857;28;20275;-67
2022/03/08 04:36:03;;;;;;;18.20;13.07;;;-2.70;99.90;;;;;;4973027;28;20208;-68
2022/03/08 04:38:28;;;;;;;24.27;14.50;;;-2.70;99.90;;;;;;4973196;28;20587;-67
2022/03/08 04:40:54;;;;;;;20.73;15.13;;;-2.60;99.90;;;;;;4973066;28;20436;-68
2022/03/08 04:43:20;;;;;;;21.93;15.70;;;-2.60;99.90;;;;;;4973033;28;20800;-68
2022/03/08 04:45:45;;;;;;;24.67;17.10;;;-2.60;99.90;;;;;;4972386;28;20207;-68
2022/03/08 04:48:11;;;;;;;24.10;15.80;;;-2.70;99.90;;;;;;4973200;28;20596;-68
2022/03/08 04:50:37;;;;;;;23.90;15.57;;;-2.80;99.90;;;;;;4973068;28;20276;-68
2022/03/08 04:53:03;;;;;;;23.40;15.40;;;-2.80;99.90;;;;;;4972818;28;20282;-68
2022/03/08 04:55:28;;;;;;;17.23;12.57;;;-2.80;99.90;;;;;;4972289;28;20569;-68
2022/03/08 04:57:54;;;;;;;14.20;12.00;;;-2.70;99.90;;;;;;4972832;28;20431;-68
2022/03/08 05:00:19;;;;;;;23.30;13.40;;;-2.70;99.90;;;;;;4973046;28;20191;-67
2022/03/08 05:02:46;;;;;;;16.13;11.47;;;-2.70;99.90;;;;;;4972942;28;20189;-68
2022/03/08 05:05:13;;;;;;;19.50;12.37;;;-2.70;99.90;;;;;;4972261;28;20237;-67
2022/03/08 05:07:39;;;;;;;19.60;12.27;;;-2.60;99.90;;;;;;4973153;28;20435;-68
2022/03/08 05:10:08;;;;;;;15.37;10.90;;;-2.70;99.90;;;;;;4973152;28;20432;-68
2022/03/08 05:12:34;;;;;;;16.30;11.60;;;-2.60;99.90;;;;;;4972687;28;20459;-68
2022/03/08 05:14:59;;;;;;;13.50;11.40;;;-2.60;99.90;;;;;;4972325;28;20448;-68
2022/03/08 05:17:25;;;;;;;17.97;13.40;;;-2.50;99.90;;;;;;4972750;28;21061;-68
2022/03/08 05:19:51;;;;;;;17.10;12.30;;;-2.50;99.90;;;;;;4972859;28;20172;-68
2022/03/08 05:22:16;;;;;;;17.30;12.23;;;-2.50;99.90;;;;;;4972644;28;20721;-68
2022/03/08 05:24:42;;;;;;;13.93;10.90;;;-2.50;99.90;;;;;;4972446;28;20533;-68
2022/03/08 05:27:08;;;;;;;15.90;11.37;;;-2.50;99.90;;;;;;4975050;28;20698;-68
2022/03/08 05:29:34;;;;;;;15.50;10.17;;;-2.60;99.90;;;;;;4976403;28;20215;-68
2022/03/08 05:32:00;;;;;;;18.87;11.33;;;-2.60;99.90;;;;;;4975098;28;20185;-68
2022/03/08 05:34:25;;;;;;;13.87;11.03;;;-2.60;99.90;;;;;;4975939;28;20455;-68
2022/03/08 05:36:51;;;;;;;15.47;11.17;;;-2.60;99.90;;;;;;4975380;28;20219;-68
2022/03/08 05:39:17;;;;;;;12.37;10.10;;;-2.60;99.90;;;;;;4976067;28;20200;-68
2022/03/08 05:41:43;;;;;;;12.13;10.00;;;-2.60;99.90;;;;;;4976170;28;20607;-68
2022/03/08 05:44:08;;;;;;;13.17;8.67;;;-2.60;99.90;;;;;;4974965;28;20427;-68
2022/03/08 05:46:34;;;;;;;17.27;10.07;;;-2.60;99.90;;;;;;4975585;28;20200;-68
2022/03/08 05:48:59;;;;;;;11.33;8.90;;;-2.50;99.90;;;;;;4976080;28;20226;-68
2022/03/08 05:51:25;;;;;;;12.23;9.47;;;-2.40;99.90;;;;;;4976107;28;20181;-68
2022/03/08 05:53:50;;;;;;;14.87;8.83;;;-2.30;99.90;;;;;;4975535;28;20200;-68
2022/03/08 05:56:16;;;;;;;12.87;8.90;;;-2.20;99.90;;;;;;4975519;28;20211;-68
2022/03/08 05:58:42;;;;;;;12.83;9.37;;;-2.10;99.90;;;;;;4976050;28;20517;-67
2022/03/08 06:01:07;;;;;;;10.90;8.73;;;-2.10;99.90;;;;;;4976114;28;20192;-68
2022/03/08 06:03:33;;;;;;;10.60;8.07;;;-2.10;99.90;;;;;;4977249;28;20934;-68
2022/03/08 06:05:58;;;;;;;12.93;8.10;;;-2.10;99.90;;;;;;4990335;28;20641;-68
2022/03/08 06:08:24;;;;;;;10.30;7.87;;;-2.00;99.90;;;;;;4979690;28;20648;-68
2022/03/08 06:10:49;;;;;;;11.63;8.60;;;-1.90;99.90;;;;;;4981589;28;20552;-68
2022/03/08 06:13:15;;;;;;;11.43;8.30;;;-1.80;99.90;;;;;;4976357;28;20196;-68
2022/03/08 06:15:40;;;;;;;9.73;8.37;;;-1.80;99.90;;;;;;4977574;28;20204;-68
2022/03/08 06:18:06;;;;;;;9.40;6.97;;;-1.70;99.90;;;;;;4977702;28;20207;-68
2022/03/08 06:20:32;;;;;;;12.10;8.60;;;-1.60;99.90;;;;;;4975401;28;20184;-68
2022/03/08 06:22:57;;;;;;;9.30;8.00;;;-1.50;99.90;;;;;;4975722;28;20187;-68
2022/03/08 06:25:23;;;;;;;11.13;6.90;;;-1.30;99.90;;;;;;4974893;28;20200;-68
2022/03/08 06:27:48;;;;;;;10.20;7.40;;;-1.10;99.90;;;;;;4975873;28;20642;-68
2022/03/08 06:30:14;;;;;;;11.50;7.67;;;-0.90;99.90;;;;;;4975176;28;20188;-70
2022/03/08 06:32:39;;;;;;;8.33;7.00;;;-0.70;99.90;;;;;;4975187;28;20202;-71
2022/03/08 06:35:05;;;;;;;9.63;7.73;;;-0.50;99.90;;;;;;4974216;28;20211;-69
2022/03/08 06:37:31;;;;;;;10.37;7.97;;;-0.30;99.90;;;;;;4974286;28;20187;-70
2022/03/08 06:39:56;;;;;;;8.70;7.80;;;-0.10;99.40;;;;;;4974853;28;20459;-71
2022/03/08 06:42:22;;;;;;;11.23;8.83;;;0.10;99.30;;;;;;4975293;28;20212;-71
2022/03/08 06:44:48;;;;;;;8.73;7.87;;;0.40;98.40;;;;;;4975187;28;20169;-71
2022/03/08 06:47:14;;;;;;;8.90;7.53;;;0.60;97.60;;;;;;4974659;28;20431;-69
2022/03/08 06:49:41;;;;;;;9.40;8.13;;;0.90;96.80;;;;;;4974779;28;20578;-68
2022/03/08 06:52:07;;;;;;;10.40;8.00;;;1.10;95.60;;;;;;4974935;28;20168;-68
2022/03/08 06:54:34;;;;;;;8.70;7.70;;;1.30;94.60;;;;;;4974821;28;20467;-69
2022/03/08 06:56:59;;;;;;;9.43;7.50;;;1.50;93.40;;;;;;4973743;28;20458;-68
2022/03/08 06:59:25;;;;;;;9.57;8.17;;;1.60;92.70;;;;;;4974748;28;20432;-69
2022/03/08 07:01:51;;;;;;;9.97;8.17;;;1.70;93.10;;;;;;4974797;28;20200;-69
2022/03/08 07:04:17;;;;;;;15.40;9.33;;;1.90;92.00;;;;;;4973415;28;20427;-69
2022/03/08 07:06:43;;;;;;;16.20;8.33;;;2.10;91.90;;;;;;4973106;28;20467;-69
2022/03/08 07:09:08;;;;;;;9.53;8.10;;;2.20;91.20;;;;;;4972961;28;20177;-69
2022/03/08 07:11:36;;;;;;;10.10;7.90;;;2.30;91.10;;;;;;4974110;28;20211;-69
2022/03/08 07:14:04;;;;;;;14.27;8.83;;;2.40;90.50;;;;;;4974075;28;20291;-69
2022/03/08 07:16:30;;;;;;;9.93;8.53;;;2.50;90.30;;;;;;4973958;28;20454;-69
2022/03/08 07:18:55;;;;;;;10.87;7.93;;;2.70;89.70;;;;;;4974141;28;20805;-69
2022/03/08 07:21:21;;;;;;;11.33;9.30;;;2.80;89.00;;;;;;4974170;28;20176;-69
2022/03/08 07:23:46;;;;;;;11.93;8.17;;;3.00;88.80;;;;;;4974182;28;20267;-68
2022/03/08 07:26:12;;;;;;;9.83;8.80;;;3.10;87.80;;;;;;4971762;28;20754;-69
2022/03/08 07:28:38;;;;;;;8.87;8.07;;;3.30;87.30;;;;;;4955041;29;20215;-69
2022/03/08 07:31:04;;;;;;;10.87;8.37;;;3.40;86.60;;;;;;4954948;29;20635;-69
2022/03/08 07:33:30;;;;;;;13.67;7.80;;;3.30;85.70;;;;;;4958538;28;20223;-68
2022/03/08 07:35:55;;;;;;;10.13;8.20;;;3.20;86.80;;;;;;4963310;28;20454;-68
2022/03/08 07:38:21;;;;;;;9.40;8.40;;;3.40;86.30;;;;;;4973936;28;20439;-68
2022/03/08 07:40:47;;;;;;;11.60;9.53;;;3.70;85.80;;;;;;4973961;28;20187;-68
2022/03/08 07:43:12;;;;;;;8.80;7.70;;;3.90;84.20;;;;;;4972558;28;20567;-68
2022/03/08 07:45:38;;;;;;;10.30;9.20;;;3.90;83.80;;;;;;4973344;28;20263;-68
2022/03/08 07:48:05;;;;;;;10.10;8.03;;;3.90;84.40;;;;;;4972183;28;20180;-68
2022/03/08 07:50:31;;;;;;;8.23;7.30;;;4.00;83.90;;;;;;4973880;28;20180;-68
2022/03/08 07:52:59;;;;;;;8.33;6.53;;;3.90;84.10;;;;;;4971925;28;20871;-68
2022/03/08 07:55:29;;;;;;;10.13;9.10;;;3.90;84.80;;;;;;4973563;28;20510;-68
2022/03/08 07:57:55;;;;;;;11.33;8.83;;;4.00;84.40;;;;;;4973848;28;20411;-68
2022/03/08 08:00:21;;;;;;;12.37;8.83;;;4.30;83.90;;;;;;4973352;28;20439;-68
2022/03/08 08:02:47;;;;;;;9.87;8.60;;;4.00;83.80;;;;;;4971169;28;20436;-68
2022/03/08 08:05:12;;;;;;;10.60;9.03;;;4.10;83.70;;;;;;4973232;28;20686;-68
2022/03/08 08:07:38;;;;;;;11.93;8.60;;;4.60;83.20;;;;;;4973473;28;20611;-68
2022/03/08 08:10:03;;;;;;;11.70;8.90;;;4.80;82.30;;;;;;4973018;28;20181;-68
2022/03/08 08:12:29;;;;;;;10.10;9.10;;;5.10;80.90;;;;;;4970306;28;20181;-67
2022/03/08 08:14:55;;;;;;;9.77;8.70;;;5.30;80.10;;;;;;4972818;28;20569;-67
2022/03/08 08:17:20;;;;;;;13.40;11.53;;;5.30;79.30;;;;;;4973082;28;20185;-68
2022/03/08 08:19:46;;;;;;;14.20;9.70;;;5.50;79.80;;;;;;4973253;28;20188;-69
2022/03/08 08:22:12;;;;;;;12.80;9.90;;;5.90;77.60;;;;;;4970501;28;20176;-68
2022/03/08 08:24:37;;;;;;;10.30;8.73;;;6.00;76.30;;;;;;4972803;28;20645;-72
2022/03/08 08:27:03;;;;;;;10.73;9.73;;;6.00;75.80;;;;;;4972303;28;20564;-68
2022/03/08 08:29:28;;;;;;;9.67;8.67;;;5.70;77.10;;;;;;4972853;28;20282;-68
2022/03/08 08:31:54;;;;;;;13.73;9.40;;;5.90;76.00;;;;;;4972931;28;20192;-68
2022/03/08 08:34:20;;;;;;;9.50;8.43;;;6.00;75.30;;;;;;4962315;28;20219;-67
2022/03/08 08:36:47;;;;;;;47.37;13.27;;;6.10;74.70;;;;;;4967703;28;20711;-67
2022/03/08 08:39:14;;;;;;;16.17;10.33;;;6.30;78.00;;;;;;4969736;28;20188;-66
2022/03/08 08:41:43;;;;;;;10.33;9.37;;;7.20;79.30;;;;;;4969414;28;20439;-66
2022/03/08 08:44:09;;;;;;;10.10;9.03;;;7.20;71.90;;;;;;4966360;28;21085;-66
2022/03/08 08:46:35;;;;;;;10.13;9.20;;;7.40;71.90;;;;;;4968481;28;20467;-66
2022/03/08 08:49:00;;;;;;;10.80;9.80;;;7.10;72.90;;;;;;4969772;28;20254;-66
2022/03/08 08:51:26;;;;;;;11.90;9.60;;;7.80;69.60;;;;;;4969270;28;20188;-66
2022/03/08 08:53:52;;;;;;;13.37;8.87;;;7.50;69.00;;;;;;4966361;28;20192;-66
2022/03/08 08:56:17;;;;;;;11.53;10.33;;;8.40;70.20;;;;;;4968366;28;20509;-66
2022/03/08 08:58:43;;;;;;;11.30;10.20;;;9.40;66.40;;;;;;4969682;28;20184;-66
2022/03/08 09:01:08;;;;;;;11.50;8.53;;;10.10;62.10;;;;;;4971911;28;20184;-66
2022/03/08 09:03:34;;;;;;;10.47;9.50;;;10.40;60.40;;;;;;4970438;28;20192;-66
2022/03/08 09:05:59;;;;;;;10.40;8.73;;;10.30;58.30;;;;;;4972539;28;20204;-66
2022/03/08 09:08:25;;;;;;;10.50;9.50;;;9.90;58.30;;;;;;4973425;28;20238;-67
2022/03/08 09:10:53;;;;;;;10.20;9.30;;;9.40;57.70;;;;;;4972536;28;20621;-67
2022/03/08 09:13:19;;;;;;;9.40;8.27;;;9.20;57.60;;;;;;4970543;28;20243;-67
2022/03/08 09:15:45;;;;;;;8.60;7.80;;;8.70;58.20;;;;;;4971574;28;20467;-67
2022/03/08 09:18:11;;;;;;;8.50;7.63;;;8.60;57.20;;;;;;4972484;28;20442;-67
2022/03/08 09:20:38;;;;;;;9.03;7.97;;;8.90;57.70;;;;;;4972792;28;20267;-67
2022/03/08 09:23:04;;;;;;;12.70;8.70;;;9.30;57.90;;;;;;4968317;28;20188;-67
2022/03/08 09:25:30;;;;;;;10.60;9.13;;;10.00;56.20;;;;;;4970583;28;20554;-67
2022/03/08 09:27:56;;;;;;;12.03;8.47;;;9.20;56.20;;;;;;4972645;28;20534;-67
2022/03/08 09:30:21;;;;;;;9.50;8.60;;;9.30;56.50;;;;;;4971709;28;20251;-67
2022/03/08 09:32:47;;;;;;;9.20;8.17;;;10.10;55.00;;;;;;4968518;28;20196;-68
2022/03/08 09:35:13;;;;;;;10.13;9.23;;;10.80;54.40;;;;;;4971201;28;20212;-67
2022/03/08 09:37:38;;;;;;;14.00;9.40;;;10.90;53.20;;;;;;4972268;28;20709;-67
2022/03/08 09:40:05;;;;;;;11.53;9.73;;;10.40;53.30;;;;;;4971572;28;20639;-67
2022/03/08 09:42:31;;;;;;;8.97;8.17;;;10.50;53.10;;;;;;4969967;28;20188;-67
2022/03/08 09:44:57;;;;;;;10.03;8.17;;;10.80;53.10;;;;;;4972163;28;20463;-67
2022/03/08 09:47:22;;;;;;;10.73;9.83;;;12.30;52.00;;;;;;4971871;28;20857;-68
2022/03/08 09:49:49;;;;;;;10.17;9.17;;;12.40;50.20;;;;;;4977199;28;20995;-67
2022/03/08 09:52:15;;;;;;;9.13;7.97;;;11.60;49.50;;;;;;4971327;28;20180;-68
2022/03/08 09:54:44;;;;;;;7.03;6.40;;;12.20;50.70;;;;;;4975002;28;20815;-68
2022/03/08 09:57:11;;;;;;;8.13;7.43;;;12.80;48.90;;;;;;4974887;28;20929;-68
2022/03/08 09:59:37;;;;;;;9.83;8.93;;;12.70;48.30;;;;;;4975010;28;20431;-68
2022/03/08 10:02:03;;;;;;;9.07;8.30;;;12.10;48.20;;;;;;4974450;28;20416;-68
2022/03/08 10:04:28;;;;;;;9.43;8.53;;;12.80;48.20;;;;;;4974437;28;20669;-68
2022/03/08 10:06:54;;;;;;;12.23;10.57;;;13.60;47.30;;;;;;4973226;28;20458;-68
2022/03/08 10:09:21;;;;;;;8.97;8.13;;;13.90;46.40;;;;;;4974749;28;20185;-68
2022/03/08 10:11:55;;;;;;;8.67;7.87;;;13.80;45.70;;;;;;4974914;28;20189;-68
2022/03/08 10:14:39;;;;;;;9.87;8.97;;;13.00;45.90;;;;;;4975189;28;20805;-68
2022/03/08 10:17:05;;;;;;;8.83;8.10;;;12.80;46.50;;;;;;4974742;28;20477;-68
2022/03/08 10:19:42;;;;;;;8.77;7.97;;;13.10;45.90;;;;;;4975478;28;20466;-68
2022/03/08 10:22:25;;;;;;;9.67;8.30;;;13.50;44.60;;;;;;4974782;28;20928;-68
2022/03/08 10:24:50;;;;;;;9.70;8.77;;;13.20;44.70;;;;;;4975250;28;20466;-68
2022/03/08 10:27:16;;;;;;;8.27;7.50;;;13.30;44.40;;;;;;4974804;28;20506;-68
2022/03/08 10:29:42;;;;;;;8.57;7.73;;;13.30;44.00;;;;;;4975104;28;20386;-68
2022/03/08 10:32:16;;;;;;;8.70;7.77;;;14.10;43.60;;;;;;4974779;28;20444;-68
2022/03/08 10:34:43;;;;;;;16.23;8.40;;;15.00;42.10;;;;;;4975061;28;20178;-68
2022/03/08 10:37:14;;;;;;;8.73;7.93;;;14.60;41.10;;;;;;4974478;28;20457;-68
2022/03/08 10:40:00;;;;;;;9.43;8.40;;;15.00;41.00;;;;;;4974649;28;20791;-68
2022/03/08 10:42:28;;;;;;;7.80;7.20;;;14.20;41.30;;;;;;4965044;28;20427;-68
2022/03/08 10:45:20;;;;;;;9.30;8.37;;;14.70;40.50;;;;;;4974650;28;20785;-68
2022/03/08 10:47:50;;;;;;;8.43;7.73;;;15.10;39.80;;;;;;4974454;28;20436;-70
2022/03/08 10:50:17;;;;;;;7.83;7.23;;;15.10;39.20;;;;;;4974623;28;21220;-68
2022/03/08 10:52:46;;;;;;;9.83;7.50;;;14.70;39.10;;;;;;4974633;28;20467;-68
2022/03/08 10:55:27;;;;;;;9.20;7.73;;;14.50;39.00;;;;;;4973830;28;20526;-68
2022/03/08 10:57:55;;;;;;;10.33;9.40;;;14.60;39.10;;;;;;4974587;28;20437;-68
2022/03/08 11:00:23;;;;;;;8.13;7.33;;;16.00;38.10;;;;;;4974238;28;20431;-68
2022/03/08 11:02:53;;;;;;;9.37;8.47;;;15.80;37.60;;;;;;4974715;28;20435;-68
2022/03/08 11:05:20;;;;;;;8.80;7.43;;;15.50;37.60;;;;;;4972871;28;20471;-68
2022/03/08 11:07:47;;;;;;;8.90;8.10;;;14.80;37.80;;;;;;4973911;28;20450;-68
2022/03/08 11:10:13;;;;;;;8.90;8.10;;;15.10;37.30;;;;;;4974145;28;20442;-68
2022/03/08 11:12:40;;;;;;;9.10;7.90;;;14.90;37.20;;;;;;4974179;28;20463;-68
2022/03/08 11:15:08;;;;;;;8.77;7.67;;;15.60;37.20;;;;;;4973179;28;20466;-69
2022/03/08 11:17:35;;;;;;;7.70;7.20;;;16.20;36.30;;;;;;4974343;28;20794;-69
2022/03/08 11:20:06;;;;;;;10.10;7.83;;;17.00;34.90;;;;;;4974424;28;20427;-69
2022/03/08 11:22:32;;;;;;;10.90;8.50;;;16.30;34.30;;;;;;4973795;28;20468;-69
2022/03/08 11:24:58;;;;;;;8.67;7.97;;;15.50;34.60;;;;;;4973925;28;20815;-69
2022/03/08 11:27:25;;;;;;;8.37;7.63;;;16.10;36.20;;;;;;4974240;28;20423;-69
2022/03/08 11:29:51;;;;;;;7.57;6.93;;;17.90;34.30;;;;;;4974245;28;20427;-69
2022/03/08 11:32:27;;;;;;;8.90;8.10;;;18.20;32.90;;;;;;4974307;28;20443;-69
2022/03/08 11:35:24;;;;;;;9.23;7.37;;;18.40;32.80;;;;;;4974057;28;20431;-69
2022/03/08 11:37:51;;;;;;;8.73;7.97;;;19.30;32.20;;;;;;4974032;28;20431;-69
2022/03/08 11:40:19;;;;;;;8.53;7.83;;;19.80;31.10;;;;;;4973978;28;20420;-69
2022/03/08 11:42:46;;;;;;;8.77;8.07;;;19.90;30.00;;;;;;4974013;28;20928;-69
2022/03/08 11:45:24;;;;;;;8.50;7.70;;;19.30;30.10;;;;;;4973135;28;20863;-69
2022/03/08 11:48:01;;;;;;;6.87;6.27;;;19.00;30.30;;;;;;4973928;28;20431;-69
2022/03/08 11:50:44;;;;;;;8.77;7.97;;;18.80;30.30;;;;;;4973899;28;20434;-69
2022/03/08 11:53:14;;;;;;;9.53;8.03;;;19.50;29.90;;;;;;4973698;28;20819;-69
2022/03/08 11:55:47;;;;;;;7.40;6.80;;;18.90;29.50;;;;;;4973055;28;20440;-69
2022/03/08 11:58:19;;;;;;;7.90;7.10;;;19.60;29.10;;;;;;4972345;28;20899;-69
2022/03/08 12:00:59;;;;;;;8.33;7.63;;;19.20;29.10;;;;;;4972568;28;20436;-67
2022/03/08 12:03:24;;;;;;;8.13;7.43;;;19.00;28.80;;;;;;4973043;28;20435;-67
2022/03/08 12:06:02;;;;;;;8.40;7.37;;;19.80;29.10;;;;;;4972250;28;20456;-67
2022/03/08 12:08:27;;;;;;;7.67;7.07;;;19.30;28.70;;;;;;4969865;28;20202;-67
2022/03/08 12:11:01;;;;;;;8.33;7.67;;;16.90;30.20;;;;;;4972607;28;20432;-67
2022/03/08 12:13:37;;;;;;;11.50;10.43;;;18.10;30.00;;;;;;4972812;28;20279;-67
2022/03/08 12:16:08;;;;;;;8.00;7.20;;;19.50;29.40;;;;;;4972072;28;20451;-67
2022/03/08 12:18:34;;;;;;;7.90;7.30;;;18.70;28.90;;;;;;4972813;28;20427;-67
2022/03/08 12:21:21;;;;;;;7.43;6.87;;;19.60;28.60;;;;;;4972584;28;20489;-67
2022/03/08 12:23:58;;;;;;;10.33;8.67;;;19.30;28.60;;;;;;4972956;28;20427;-67
2022/03/08 12:26:50;;;;;;;8.20;7.50;;;19.20;29.40;;;;;;4971819;28;21003;-67
2022/03/08 12:29:20;;;;;;;9.17;8.37;;;19.40;29.50;;;;;;4963271;28;20446;-67
2022/03/08 12:32:06;;;;;;;8.53;7.70;;;20.50;28.90;;;;;;4973044;28;20957;-67
2022/03/08 12:34:42;;;;;;;9.50;8.63;;;21.90;27.90;;;;;;4965102;28;20487;-67
2022/03/08 12:37:26;;;;;;;9.77;8.80;;;22.40;27.30;;;;;;4971670;28;20957;-67